Portada
METAR-TAF:

METAR-TAF

Aeropuertos :

Base Aérea de la Isla Ascensión

Georgetown, Isla Ascensión

latitud: 07-58S, longitud: 014-24W, altitud: 86 m

Observación

El informe se hizo hace 6 horas y 47 minutos, a las 09:50 UTC
Viento 13 kt del sur
Temperatura 26°C
Humedad 70%
Presión 1013 hPa
Visibilidad 10 km o más
Escasas nubes a una altura de 2200 ft
Cielo nuboso a una altura de 3500 ft

METAR: FHAW 110950Z 17013KT 9999 FEW022 BKN035 26/20 Q1013 NOSIG RMK BLU BLU

Hora: 16:37 (16:37 UTC)

Pronóstico

El informe se hizo hace 9 horas y 7 minutos, a las 07:30 UTC
Pronóstico válido del 11 a las 09 UTC al 12 a las 03 UTC
Viento 9 kt del sur-sureste
Visibilidad 10 km o más
Escasas nubes a una altura de 1800 ft
Nubes dispersas a una altura de 2500 ft

TAF: FHAW 110730Z 1109/1203 15009KT 9999 FEW018 SCT025

Observaciones y pronósticos meteorológicos de más de 4000 aeropuertos (mensajes METAR y TAF).

Los puntos amarillos y rojos representan las estaciones disponibles.

Ponga el ratón en el punto deseado para ver el nombre de la estación.

Haga clic para ver las observaciones y los pronósticos meteorológicos.

Para cambiar el mapa : haga clic en los botones verdes con una cruz de color negro para hacer un zoom, en el botón verde con un guión para alejar o en las flechas verdes para mapas adyacentes.


METAR-TAF: